Eureka, North Carolina
Current Conditions -  °F | °C
As of 4:35 PM on Friday 24 Oct 2014 (Local Time) from KGWW Reporting Station
Clear Clear  
Wind Chill: 70°   Ceiling: Unl
Heat Index: 70°   Visibility: 10mi
Dew Point: 46°   Wind: 0mph
Humidity: 43%   Direction: NA
Pressure: 29.95"   Gusts: NA
Location:  35.5277°N, 77.996°W
Report Text: KGWW 242035Z AUTO 00000KT 10SM CLR 21/08 A2995 RMK AO2 T02090078
Loading
Personal Weather Stations






























Interactive Weather Map
Tropical Storm Tracking
New forecast layout! Learn more

10-Day Weather Forecast

Advertisements
Track Severe Weather on mobile